sensor_id;sensor_type;location;lat;lon;timestamp;P1;durP1;ratioP1;P2;durP2;ratioP2
29908;SDS011;36247;51.952;6.146;2023-06-14T00:02:15;5.38;;;4.43;;
29908;SDS011;36247;51.952;6.146;2023-06-14T00:04:41;9.05;;;4.65;;
29908;SDS011;36247;51.952;6.146;2023-06-14T00:07:07;8.40;;;4.70;;
29908;SDS011;36247;51.952;6.146;2023-06-14T00:09:40;16.48;;;4.72;;
29908;SDS011;36247;51.952;6.146;2023-06-14T00:12:06;8.63;;;4.90;;
29908;SDS011;36247;51.952;6.146;2023-06-14T00:14:35;11.73;;;4.93;;
29908;SDS011;36247;51.952;6.146;2023-06-14T00:17:01;17.00;;;5.03;;
29908;SDS011;36247;51.952;6.146;2023-06-14T00:19:27;7.35;;;4.40;;
29908;SDS011;36247;51.952;6.146;2023-06-14T00:21:54;6.47;;;4.72;;
29908;SDS011;36247;51.952;6.146;2023-06-14T00:24:20;9.63;;;4.35;;
29908;SDS011;36247;51.952;6.146;2023-06-14T00:26:46;7.32;;;4.30;;
29908;SDS011;36247;51.952;6.146;2023-06-14T00:29:12;6.13;;;4.20;;
29908;SDS011;36247;51.952;6.146;2023-06-14T00:31:38;10.18;;;4.65;;
29908;SDS011;36247;51.952;6.146;2023-06-14T00:34:06;13.90;;;5.10;;
29908;SDS011;36247;51.952;6.146;2023-06-14T00:36:32;5.90;;;4.38;;
29908;SDS011;36247;51.952;6.146;2023-06-14T00:38:57;8.23;;;4.38;;
29908;SDS011;36247;51.952;6.146;2023-06-14T00:41:22;8.65;;;4.43;;
29908;SDS011;36247;51.952;6.146;2023-06-14T00:43:48;9.13;;;5.22;;
29908;SDS011;36247;51.952;6.146;2023-06-14T00:46:14;8.15;;;4.50;;
29908;SDS011;36247;51.952;6.146;2023-06-14T00:48:40;10.63;;;4.72;;
29908;SDS011;36247;51.952;6.146;2023-06-14T00:51:07;7.18;;;4.55;;
29908;SDS011;36247;51.952;6.146;2023-06-14T00:53:37;7.07;;;3.97;;
29908;SDS011;36247;51.952;6.146;2023-06-14T00:56:06;7.00;;;5.38;;
29908;SDS011;36247;51.952;6.146;2023-06-14T00:58:32;9.27;;;4.75;;
29908;SDS011;36247;51.952;6.146;2023-06-14T01:00:57;9.57;;;4.88;;
29908;SDS011;36247;51.952;6.146;2023-06-14T01:03:23;11.40;;;4.43;;
29908;SDS011;36247;51.952;6.146;2023-06-14T01:05:55;7.57;;;4.65;;
29908;SDS011;36247;51.952;6.146;2023-06-14T01:08:45;8.75;;;4.40;;
29908;SDS011;36247;51.952;6.146;2023-06-14T01:11:18;12.32;;;4.90;;
29908;SDS011;36247;51.952;6.146;2023-06-14T01:13:52;5.15;;;4.07;;
29908;SDS011;36247;51.952;6.146;2023-06-14T01:16:23;6.68;;;4.57;;
29908;SDS011;36247;51.952;6.146;2023-06-14T01:18:51;7.20;;;4.32;;
29908;SDS011;36247;51.952;6.146;2023-06-14T01:21:24;7.68;;;3.97;;
29908;SDS011;36247;51.952;6.146;2023-06-14T01:23:50;8.73;;;4.57;;
29908;SDS011;36247;51.952;6.146;2023-06-14T01:26:24;9.10;;;5.05;;
29908;SDS011;36247;51.952;6.146;2023-06-14T01:31:18;5.85;;;4.35;;
29908;SDS011;36247;51.952;6.146;2023-06-14T01:33:47;5.60;;;4.20;;
29908;SDS011;36247;51.952;6.146;2023-06-14T01:36:16;6.90;;;4.57;;
29908;SDS011;36247;51.952;6.146;2023-06-14T01:38:44;8.15;;;4.28;;
29908;SDS011;36247;51.952;6.146;2023-06-14T01:41:11;5.82;;;4.18;;
29908;SDS011;36247;51.952;6.146;2023-06-14T01:43:36;6.43;;;4.38;;
29908;SDS011;36247;51.952;6.146;2023-06-14T01:46:06;12.23;;;4.45;;
29908;SDS011;36247;51.952;6.146;2023-06-14T01:48:36;8.77;;;4.25;;
29908;SDS011;36247;51.952;6.146;2023-06-14T01:51:02;11.50;;;4.32;;
29908;SDS011;36247;51.952;6.146;2023-06-14T01:53:28;9.68;;;4.72;;
29908;SDS011;36247;51.952;6.146;2023-06-14T01:55:53;8.43;;;5.18;;
29908;SDS011;36247;51.952;6.146;2023-06-14T01:58:20;6.47;;;4.10;;
29908;SDS011;36247;51.952;6.146;2023-06-14T02:00:46;5.38;;;4.25;;
29908;SDS011;36247;51.952;6.146;2023-06-14T02:03:12;11.15;;;4.43;;
29908;SDS011;36247;51.952;6.146;2023-06-14T02:05:39;9.68;;;4.30;;
29908;SDS011;36247;51.952;6.146;2023-06-14T02:08:06;9.60;;;4.82;;
29908;SDS011;36247;51.952;6.146;2023-06-14T02:10:32;6.47;;;4.57;;
29908;SDS011;36247;51.952;6.146;2023-06-14T02:12:58;6.10;;;4.28;;
29908;SDS011;36247;51.952;6.146;2023-06-14T02:15:24;5.97;;;4.13;;
29908;SDS011;36247;51.952;6.146;2023-06-14T02:17:49;6.93;;;3.97;;
29908;SDS011;36247;51.952;6.146;2023-06-14T02:20:16;9.05;;;3.78;;
29908;SDS011;36247;51.952;6.146;2023-06-14T02:22:42;8.52;;;4.38;;
29908;SDS011;36247;51.952;6.146;2023-06-14T02:25:08;9.80;;;4.75;;
29908;SDS011;36247;51.952;6.146;2023-06-14T02:27:36;7.50;;;4.38;;
29908;SDS011;36247;51.952;6.146;2023-06-14T02:30:03;8.88;;;4.30;;
29908;SDS011;36247;51.952;6.146;2023-06-14T02:32:31;6.22;;;4.55;;
29908;SDS011;36247;51.952;6.146;2023-06-14T02:34:59;11.80;;;4.63;;
29908;SDS011;36247;51.952;6.146;2023-06-14T02:37:24;6.38;;;4.20;;
29908;SDS011;36247;51.952;6.146;2023-06-14T02:39:52;5.65;;;3.92;;
29908;SDS011;36247;51.952;6.146;2023-06-14T02:42:17;16.05;;;4.32;;
29908;SDS011;36247;51.952;6.146;2023-06-14T02:44:43;6.97;;;4.25;;
29908;SDS011;36247;51.952;6.146;2023-06-14T02:47:11;7.00;;;4.63;;
29908;SDS011;36247;51.952;6.146;2023-06-14T02:49:37;12.20;;;5.25;;
29908;SDS011;36247;51.952;6.146;2023-06-14T02:52:06;10.82;;;5.32;;
29908;SDS011;36247;51.952;6.146;2023-06-14T02:54:35;8.00;;;4.78;;
29908;SDS011;36247;51.952;6.146;2023-06-14T02:57:01;9.65;;;4.50;;
29908;SDS011;36247;51.952;6.146;2023-06-14T02:59:27;6.95;;;4.07;;
29908;SDS011;36247;51.952;6.146;2023-06-14T03:01:54;9.45;;;4.18;;
29908;SDS011;36247;51.952;6.146;2023-06-14T03:04:20;10.25;;;4.25;;
29908;SDS011;36247;51.952;6.146;2023-06-14T03:06:46;8.80;;;4.78;;
29908;SDS011;36247;51.952;6.146;2023-06-14T03:09:16;6.90;;;4.47;;
29908;SDS011;36247;51.952;6.146;2023-06-14T03:11:42;7.28;;;4.05;;
29908;SDS011;36247;51.952;6.146;2023-06-14T03:14:08;10.88;;;4.85;;
29908;SDS011;36247;51.952;6.146;2023-06-14T03:16:37;8.82;;;4.53;;
29908;SDS011;36247;51.952;6.146;2023-06-14T03:19:03;6.60;;;4.10;;
29908;SDS011;36247;51.952;6.146;2023-06-14T03:21:30;8.80;;;4.68;;
29908;SDS011;36247;51.952;6.146;2023-06-14T03:23:59;8.25;;;4.28;;
29908;SDS011;36247;51.952;6.146;2023-06-14T03:26:25;7.07;;;4.18;;
29908;SDS011;36247;51.952;6.146;2023-06-14T03:28:52;8.10;;;5.03;;
29908;SDS011;36247;51.952;6.146;2023-06-14T03:31:19;7.25;;;4.82;;
29908;SDS011;36247;51.952;6.146;2023-06-14T03:33:45;11.38;;;5.00;;
29908;SDS011;36247;51.952;6.146;2023-06-14T03:36:11;5.85;;;4.30;;
29908;SDS011;36247;51.952;6.146;2023-06-14T03:38:38;8.65;;;4.38;;
29908;SDS011;36247;51.952;6.146;2023-06-14T03:41:07;5.50;;;3.88;;
29908;SDS011;36247;51.952;6.146;2023-06-14T03:43:37;9.43;;;4.30;;
29908;SDS011;36247;51.952;6.146;2023-06-14T03:46:03;6.45;;;4.82;;
29908;SDS011;36247;51.952;6.146;2023-06-14T03:48:30;7.22;;;4.22;;
29908;SDS011;36247;51.952;6.146;2023-06-14T03:50:56;9.45;;;4.75;;
29908;SDS011;36247;51.952;6.146;2023-06-14T03:53:22;8.30;;;4.43;;
29908;SDS011;36247;51.952;6.146;2023-06-14T03:55:53;11.30;;;5.00;;
29908;SDS011;36247;51.952;6.146;2023-06-14T03:58:20;7.03;;;5.07;;
29908;SDS011;36247;51.952;6.146;2023-06-14T04:00:49;8.27;;;4.47;;
29908;SDS011;36247;51.952;6.146;2023-06-14T04:03:15;5.70;;;4.05;;
29908;SDS011;36247;51.952;6.146;2023-06-14T04:05:41;6.20;;;4.45;;
29908;SDS011;36247;51.952;6.146;2023-06-14T04:08:09;9.60;;;4.82;;
29908;SDS011;36247;51.952;6.146;2023-06-14T04:10:41;8.85;;;4.18;;
29908;SDS011;36247;51.952;6.146;2023-06-14T04:13:06;6.75;;;4.40;;
29908;SDS011;36247;51.952;6.146;2023-06-14T04:15:33;10.20;;;4.60;;
29908;SDS011;36247;51.952;6.146;2023-06-14T04:17:59;6.95;;;4.07;;
29908;SDS011;36247;51.952;6.146;2023-06-14T04:20:25;8.77;;;4.50;;
29908;SDS011;36247;51.952;6.146;2023-06-14T04:22:51;9.32;;;4.45;;
29908;SDS011;36247;51.952;6.146;2023-06-14T04:25:22;8.82;;;4.47;;
29908;SDS011;36247;51.952;6.146;2023-06-14T04:27:48;4.22;;;3.80;;
29908;SDS011;36247;51.952;6.146;2023-06-14T04:30:15;6.20;;;4.22;;
29908;SDS011;36247;51.952;6.146;2023-06-14T04:32:50;6.97;;;4.40;;
29908;SDS011;36247;51.952;6.146;2023-06-14T04:35:18;7.35;;;4.32;;
29908;SDS011;36247;51.952;6.146;2023-06-14T04:37:46;6.63;;;4.43;;
29908;SDS011;36247;51.952;6.146;2023-06-14T04:40:12;9.65;;;4.07;;
29908;SDS011;36247;51.952;6.146;2023-06-14T04:42:41;6.38;;;3.97;;
29908;SDS011;36247;51.952;6.146;2023-06-14T04:45:10;7.22;;;4.50;;
29908;SDS011;36247;51.952;6.146;2023-06-14T04:47:38;9.00;;;4.53;;
29908;SDS011;36247;51.952;6.146;2023-06-14T04:50:07;8.23;;;4.93;;
29908;SDS011;36247;51.952;6.146;2023-06-14T04:52:39;5.25;;;4.18;;
29908;SDS011;36247;51.952;6.146;2023-06-14T04:55:09;8.00;;;4.60;;
29908;SDS011;36247;51.952;6.146;2023-06-14T04:57:36;6.22;;;4.13;;
29908;SDS011;36247;51.952;6.146;2023-06-14T05:00:07;7.80;;;4.28;;
29908;SDS011;36247;51.952;6.146;2023-06-14T05:02:39;12.85;;;4.32;;
29908;SDS011;36247;51.952;6.146;2023-06-14T05:05:06;7.78;;;4.05;;
29908;SDS011;36247;51.952;6.146;2023-06-14T05:07:32;8.68;;;4.28;;
29908;SDS011;36247;51.952;6.146;2023-06-14T05:09:59;9.40;;;3.85;;
29908;SDS011;36247;51.952;6.146;2023-06-14T05:12:24;6.60;;;3.50;;
29908;SDS011;36247;51.952;6.146;2023-06-14T05:14:50;11.30;;;4.25;;
29908;SDS011;36247;51.952;6.146;2023-06-14T05:17:19;10.90;;;4.75;;
29908;SDS011;36247;51.952;6.146;2023-06-14T05:19:45;8.75;;;4.55;;
29908;SDS011;36247;51.952;6.146;2023-06-14T05:22:11;8.60;;;4.10;;
29908;SDS011;36247;51.952;6.146;2023-06-14T05:24:36;6.32;;;4.13;;
29908;SDS011;36247;51.952;6.146;2023-06-14T05:27:05;11.00;;;4.03;;
29908;SDS011;36247;51.952;6.146;2023-06-14T05:29:32;10.23;;;4.50;;
29908;SDS011;36247;51.952;6.146;2023-06-14T05:31:57;6.97;;;4.00;;
29908;SDS011;36247;51.952;6.146;2023-06-14T05:34:23;14.15;;;4.30;;
29908;SDS011;36247;51.952;6.146;2023-06-14T05:36:48;5.13;;;4.00;;
29908;SDS011;36247;51.952;6.146;2023-06-14T05:39:14;9.15;;;4.20;;
29908;SDS011;36247;51.952;6.146;2023-06-14T05:41:41;4.22;;;3.60;;
29908;SDS011;36247;51.952;6.146;2023-06-14T05:44:06;6.63;;;4.07;;
29908;SDS011;36247;51.952;6.146;2023-06-14T05:46:33;9.15;;;4.32;;
29908;SDS011;36247;51.952;6.146;2023-06-14T05:48:59;9.40;;;4.03;;
29908;SDS011;36247;51.952;6.146;2023-06-14T05:51:24;5.72;;;4.40;;
29908;SDS011;36247;51.952;6.146;2023-06-14T05:53:52;7.70;;;3.95;;
29908;SDS011;36247;51.952;6.146;2023-06-14T05:56:18;9.23;;;4.75;;
29908;SDS011;36247;51.952;6.146;2023-06-14T05:58:44;5.82;;;4.50;;
29908;SDS011;36247;51.952;6.146;2023-06-14T06:01:12;8.80;;;4.43;;
29908;SDS011;36247;51.952;6.146;2023-06-14T06:03:38;7.97;;;4.38;;
29908;SDS011;36247;51.952;6.146;2023-06-14T06:06:11;19.77;;;4.50;;
29908;SDS011;36247;51.952;6.146;2023-06-14T06:08:37;5.72;;;4.10;;
29908;SDS011;36247;51.952;6.146;2023-06-14T06:11:06;6.97;;;4.20;;
29908;SDS011;36247;51.952;6.146;2023-06-14T06:13:32;11.25;;;4.30;;
29908;SDS011;36247;51.952;6.146;2023-06-14T06:15:58;5.47;;;4.28;;
29908;SDS011;36247;51.952;6.146;2023-06-14T06:18:23;6.70;;;4.15;;
29908;SDS011;36247;51.952;6.146;2023-06-14T06:20:49;9.75;;;4.38;;
29908;SDS011;36247;51.952;6.146;2023-06-14T06:23:14;4.75;;;3.97;;
29908;SDS011;36247;51.952;6.146;2023-06-14T06:25:42;6.05;;;3.80;;
29908;SDS011;36247;51.952;6.146;2023-06-14T06:28:14;6.03;;;3.80;;
29908;SDS011;36247;51.952;6.146;2023-06-14T06:30:41;18.00;;;4.50;;
29908;SDS011;36247;51.952;6.146;2023-06-14T06:33:06;7.53;;;3.60;;
29908;SDS011;36247;51.952;6.146;2023-06-14T06:35:32;9.65;;;4.40;;
29908;SDS011;36247;51.952;6.146;2023-06-14T06:37:58;4.13;;;3.35;;
29908;SDS011;36247;51.952;6.146;2023-06-14T06:40:25;6.78;;;3.40;;
29908;SDS011;36247;51.952;6.146;2023-06-14T06:42:50;4.80;;;3.40;;
29908;SDS011;36247;51.952;6.146;2023-06-14T06:45:17;5.90;;;3.90;;
29908;SDS011;36247;51.952;6.146;2023-06-14T06:47:43;9.80;;;3.65;;
29908;SDS011;36247;51.952;6.146;2023-06-14T06:50:09;5.75;;;3.40;;
29908;SDS011;36247;51.952;6.146;2023-06-14T06:52:36;6.38;;;3.97;;
29908;SDS011;36247;51.952;6.146;2023-06-14T06:55:02;3.83;;;3.00;;
29908;SDS011;36247;51.952;6.146;2023-06-14T06:57:28;6.88;;;3.35;;
29908;SDS011;36247;51.952;6.146;2023-06-14T06:59:57;5.65;;;3.17;;
29908;SDS011;36247;51.952;6.146;2023-06-14T07:02:23;5.93;;;3.13;;
29908;SDS011;36247;51.952;6.146;2023-06-14T07:04:48;6.05;;;3.13;;
29908;SDS011;36247;51.952;6.146;2023-06-14T07:07:14;6.97;;;3.30;;
29908;SDS011;36247;51.952;6.146;2023-06-14T07:09:41;5.60;;;3.22;;
29908;SDS011;36247;51.952;6.146;2023-06-14T07:12:07;3.80;;;3.00;;
29908;SDS011;36247;51.952;6.146;2023-06-14T07:14:35;6.93;;;3.08;;
29908;SDS011;36247;51.952;6.146;2023-06-14T07:17:01;4.75;;;2.80;;
29908;SDS011;36247;51.952;6.146;2023-06-14T07:19:27;6.95;;;2.83;;
29908;SDS011;36247;51.952;6.146;2023-06-14T07:21:53;2.58;;;2.30;;
29908;SDS011;36247;51.952;6.146;2023-06-14T07:24:19;3.85;;;2.80;;
29908;SDS011;36247;51.952;6.146;2023-06-14T07:26:46;6.13;;;2.85;;
29908;SDS011;36247;51.952;6.146;2023-06-14T07:29:14;3.55;;;2.80;;
29908;SDS011;36247;51.952;6.146;2023-06-14T07:31:41;4.60;;;2.83;;
29908;SDS011;36247;51.952;6.146;2023-06-14T07:34:07;4.63;;;2.65;;
29908;SDS011;36247;51.952;6.146;2023-06-14T07:36:32;4.70;;;2.40;;
29908;SDS011;36247;51.952;6.146;2023-06-14T07:38:57;4.63;;;2.55;;
29908;SDS011;36247;51.952;6.146;2023-06-14T07:41:23;5.55;;;2.58;;
29908;SDS011;36247;51.952;6.146;2023-06-14T07:43:49;3.60;;;2.53;;
29908;SDS011;36247;51.952;6.146;2023-06-14T07:46:15;2.80;;;2.50;;
29908;SDS011;36247;51.952;6.146;2023-06-14T07:48:40;5.53;;;2.47;;
29908;SDS011;36247;51.952;6.146;2023-06-14T07:51:06;4.70;;;2.80;;
29908;SDS011;36247;51.952;6.146;2023-06-14T07:53:32;4.63;;;4.00;;
29908;SDS011;36247;51.952;6.146;2023-06-14T07:55:57;8.32;;;3.13;;
29908;SDS011;36247;51.952;6.146;2023-06-14T07:58:23;5.68;;;2.90;;
29908;SDS011;36247;51.952;6.146;2023-06-14T08:00:48;5.30;;;3.05;;
29908;SDS011;36247;51.952;6.146;2023-06-14T08:03:15;5.60;;;2.65;;
29908;SDS011;36247;51.952;6.146;2023-06-14T08:05:41;3.42;;;3.13;;
29908;SDS011;36247;51.952;6.146;2023-06-14T08:08:06;7.68;;;3.58;;
29908;SDS011;36247;51.952;6.146;2023-06-14T08:10:32;4.95;;;3.03;;
29908;SDS011;36247;51.952;6.146;2023-06-14T08:12:57;4.85;;;2.92;;
29908;SDS011;36247;51.952;6.146;2023-06-14T08:15:23;4.53;;;2.70;;
29908;SDS011;36247;51.952;6.146;2023-06-14T08:17:48;5.55;;;2.70;;
29908;SDS011;36247;51.952;6.146;2023-06-14T08:20:15;6.45;;;2.40;;
29908;SDS011;36247;51.952;6.146;2023-06-14T08:22:42;5.75;;;3.20;;
29908;SDS011;36247;51.952;6.146;2023-06-14T08:25:14;4.65;;;2.78;;
29908;SDS011;36247;51.952;6.146;2023-06-14T08:27:41;3.97;;;2.90;;
29908;SDS011;36247;51.952;6.146;2023-06-14T08:30:07;4.88;;;2.80;;
29908;SDS011;36247;51.952;6.146;2023-06-14T08:32:36;5.90;;;2.72;;
29908;SDS011;36247;51.952;6.146;2023-06-14T08:35:01;8.55;;;3.35;;
29908;SDS011;36247;51.952;6.146;2023-06-14T08:37:27;2.92;;;2.30;;
29908;SDS011;36247;51.952;6.146;2023-06-14T08:39:54;4.00;;;2.70;;
29908;SDS011;36247;51.952;6.146;2023-06-14T08:42:21;5.90;;;2.65;;
29908;SDS011;36247;51.952;6.146;2023-06-14T08:44:49;4.13;;;2.70;;
29908;SDS011;36247;51.952;6.146;2023-06-14T08:47:15;7.20;;;2.75;;
29908;SDS011;36247;51.952;6.146;2023-06-14T08:49:43;4.32;;;2.63;;
29908;SDS011;36247;51.952;6.146;2023-06-14T08:52:12;3.60;;;3.05;;
29908;SDS011;36247;51.952;6.146;2023-06-14T08:54:38;4.53;;;2.30;;
29908;SDS011;36247;51.952;6.146;2023-06-14T08:57:11;3.17;;;2.78;;
29908;SDS011;36247;51.952;6.146;2023-06-14T08:59:45;4.22;;;2.50;;
29908;SDS011;36247;51.952;6.146;2023-06-14T09:02:15;6.60;;;2.50;;
29908;SDS011;36247;51.952;6.146;2023-06-14T09:04:43;4.25;;;2.30;;
29908;SDS011;36247;51.952;6.146;2023-06-14T09:07:11;5.22;;;3.00;;
29908;SDS011;36247;51.952;6.146;2023-06-14T09:09:41;5.43;;;2.45;;
29908;SDS011;36247;51.952;6.146;2023-06-14T09:12:12;7.70;;;2.33;;
29908;SDS011;36247;51.952;6.146;2023-06-14T09:14:39;3.45;;;2.35;;
29908;SDS011;36247;51.952;6.146;2023-06-14T09:17:07;4.20;;;2.60;;
29908;SDS011;36247;51.952;6.146;2023-06-14T09:19:39;3.75;;;2.20;;
29908;SDS011;36247;51.952;6.146;2023-06-14T09:22:07;3.38;;;2.22;;
29908;SDS011;36247;51.952;6.146;2023-06-14T09:24:37;2.65;;;2.40;;
29908;SDS011;36247;51.952;6.146;2023-06-14T09:27:02;3.20;;;2.30;;
29908;SDS011;36247;51.952;6.146;2023-06-14T09:29:28;5.18;;;2.95;;
29908;SDS011;36247;51.952;6.146;2023-06-14T09:31:55;4.68;;;2.70;;
29908;SDS011;36247;51.952;6.146;2023-06-14T09:34:21;4.60;;;2.92;;
29908;SDS011;36247;51.952;6.146;2023-06-14T09:36:48;3.95;;;2.65;;
29908;SDS011;36247;51.952;6.146;2023-06-14T09:39:16;3.05;;;2.60;;
29908;SDS011;36247;51.952;6.146;2023-06-14T09:41:43;3.70;;;2.40;;
29908;SDS011;36247;51.952;6.146;2023-06-14T09:44:10;2.80;;;2.22;;
29908;SDS011;36247;51.952;6.146;2023-06-14T09:46:37;4.85;;;2.25;;
29908;SDS011;36247;51.952;6.146;2023-06-14T09:49:06;2.85;;;2.47;;
29908;SDS011;36247;51.952;6.146;2023-06-14T09:51:37;4.28;;;2.20;;
29908;SDS011;36247;51.952;6.146;2023-06-14T09:54:08;5.13;;;2.50;;
29908;SDS011;36247;51.952;6.146;2023-06-14T09:56:41;3.72;;;2.22;;
29908;SDS011;36247;51.952;6.146;2023-06-14T09:59:12;3.05;;;1.88;;
29908;SDS011;36247;51.952;6.146;2023-06-14T10:01:42;3.67;;;2.15;;
29908;SDS011;36247;51.952;6.146;2023-06-14T10:04:09;5.00;;;2.60;;
29908;SDS011;36247;51.952;6.146;2023-06-14T10:06:43;3.33;;;2.50;;
29908;SDS011;36247;51.952;6.146;2023-06-14T10:09:11;3.57;;;2.30;;
29908;SDS011;36247;51.952;6.146;2023-06-14T10:11:37;3.28;;;2.10;;
29908;SDS011;36247;51.952;6.146;2023-06-14T10:14:10;5.50;;;2.30;;
29908;SDS011;36247;51.952;6.146;2023-06-14T10:16:42;3.47;;;2.03;;
29908;SDS011;36247;51.952;6.146;2023-06-14T10:22:01;4.15;;;2.10;;
29908;SDS011;36247;51.952;6.146;2023-06-14T10:24:50;3.83;;;2.28;;
29908;SDS011;36247;51.952;6.146;2023-06-14T10:27:16;3.65;;;2.50;;
29908;SDS011;36247;51.952;6.146;2023-06-14T10:32:23;2.92;;;2.58;;
29908;SDS011;36247;51.952;6.146;2023-06-14T10:34:59;5.20;;;2.85;;
29908;SDS011;36247;51.952;6.146;2023-06-14T10:37:26;6.95;;;2.13;;
29908;SDS011;36247;51.952;6.146;2023-06-14T10:39:53;2.45;;;2.25;;
29908;SDS011;36247;51.952;6.146;2023-06-14T10:42:19;3.58;;;2.40;;
29908;SDS011;36247;51.952;6.146;2023-06-14T10:44:54;3.47;;;2.22;;
29908;SDS011;36247;51.952;6.146;2023-06-14T10:47:24;4.90;;;2.50;;
29908;SDS011;36247;51.952;6.146;2023-06-14T10:50:02;5.57;;;2.05;;
29908;SDS011;36247;51.952;6.146;2023-06-14T10:52:29;3.60;;;2.40;;
29908;SDS011;36247;51.952;6.146;2023-06-14T10:55:04;3.13;;;2.58;;
29908;SDS011;36247;51.952;6.146;2023-06-14T11:00:12;6.30;;;2.40;;
29908;SDS011;36247;51.952;6.146;2023-06-14T11:05:49;2.83;;;1.98;;
29908;SDS011;36247;51.952;6.146;2023-06-14T11:08:21;4.07;;;2.60;;
29908;SDS011;36247;51.952;6.146;2023-06-14T11:11:00;4.65;;;2.63;;
29908;SDS011;36247;51.952;6.146;2023-06-14T11:13:30;2.75;;;2.25;;
29908;SDS011;36247;51.952;6.146;2023-06-14T11:15:56;3.58;;;2.42;;
29908;SDS011;36247;51.952;6.146;2023-06-14T11:18:23;3.38;;;2.05;;
29908;SDS011;36247;51.952;6.146;2023-06-14T11:20:55;3.97;;;2.10;;
29908;SDS011;36247;51.952;6.146;2023-06-14T11:23:21;2.70;;;2.25;;
29908;SDS011;36247;51.952;6.146;2023-06-14T11:25:49;4.05;;;2.28;;
29908;SDS011;36247;51.952;6.146;2023-06-14T11:28:16;3.80;;;2.20;;
29908;SDS011;36247;51.952;6.146;2023-06-14T11:30:42;2.88;;;2.20;;
29908;SDS011;36247;51.952;6.146;2023-06-14T11:33:09;4.90;;;2.25;;
29908;SDS011;36247;51.952;6.146;2023-06-14T11:35:42;4.03;;;2.50;;
29908;SDS011;36247;51.952;6.146;2023-06-14T11:38:15;4.72;;;2.35;;
29908;SDS011;36247;51.952;6.146;2023-06-14T11:40:42;4.13;;;2.20;;
29908;SDS011;36247;51.952;6.146;2023-06-14T11:43:07;4.38;;;2.10;;
29908;SDS011;36247;51.952;6.146;2023-06-14T11:45:36;6.25;;;2.40;;
29908;SDS011;36247;51.952;6.146;2023-06-14T11:48:02;2.47;;;2.20;;
29908;SDS011;36247;51.952;6.146;2023-06-14T11:50:27;2.60;;;2.00;;
29908;SDS011;36247;51.952;6.146;2023-06-14T11:52:56;7.30;;;2.60;;
29908;SDS011;36247;51.952;6.146;2023-06-14T11:55:25;2.88;;;2.30;;
29908;SDS011;36247;51.952;6.146;2023-06-14T11:57:51;4.43;;;2.60;;
29908;SDS011;36247;51.952;6.146;2023-06-14T12:00:19;8.43;;;2.83;;
29908;SDS011;36247;51.952;6.146;2023-06-14T12:02:52;4.30;;;2.40;;
29908;SDS011;36247;51.952;6.146;2023-06-14T12:05:21;4.20;;;2.15;;
29908;SDS011;36247;51.952;6.146;2023-06-14T12:07:47;7.43;;;2.47;;
29908;SDS011;36247;51.952;6.146;2023-06-14T12:10:13;4.03;;;2.10;;
29908;SDS011;36247;51.952;6.146;2023-06-14T12:12:41;2.50;;;2.30;;
29908;SDS011;36247;51.952;6.146;2023-06-14T12:15:08;4.53;;;2.13;;
29908;SDS011;36247;51.952;6.146;2023-06-14T12:17:37;3.35;;;1.70;;
29908;SDS011;36247;51.952;6.146;2023-06-14T12:20:11;4.80;;;2.00;;
29908;SDS011;36247;51.952;6.146;2023-06-14T12:22:51;6.32;;;1.90;;
29908;SDS011;36247;51.952;6.146;2023-06-14T12:25:34;2.95;;;1.90;;
29908;SDS011;36247;51.952;6.146;2023-06-14T12:28:05;2.53;;;1.90;;
29908;SDS011;36247;51.952;6.146;2023-06-14T12:30:33;2.95;;;1.63;;
29908;SDS011;36247;51.952;6.146;2023-06-14T12:32:59;2.42;;;2.13;;
29908;SDS011;36247;51.952;6.146;2023-06-14T12:35:26;2.22;;;1.70;;
29908;SDS011;36247;51.952;6.146;2023-06-14T12:37:52;2.83;;;1.90;;
29908;SDS011;36247;51.952;6.146;2023-06-14T12:40:17;5.15;;;1.92;;
29908;SDS011;36247;51.952;6.146;2023-06-14T12:42:44;2.72;;;2.00;;
29908;SDS011;36247;51.952;6.146;2023-06-14T12:45:12;2.83;;;2.20;;
29908;SDS011;36247;51.952;6.146;2023-06-14T12:47:37;2.80;;;1.92;;
29908;SDS011;36247;51.952;6.146;2023-06-14T12:50:07;4.78;;;2.25;;
29908;SDS011;36247;51.952;6.146;2023-06-14T12:52:32;2.22;;;1.67;;
29908;SDS011;36247;51.952;6.146;2023-06-14T12:55:03;5.20;;;2.03;;
29908;SDS011;36247;51.952;6.146;2023-06-14T12:57:29;1.65;;;1.55;;
29908;SDS011;36247;51.952;6.146;2023-06-14T12:59:55;3.67;;;1.60;;
29908;SDS011;36247;51.952;6.146;2023-06-14T13:02:21;1.67;;;1.58;;
29908;SDS011;36247;51.952;6.146;2023-06-14T13:04:50;2.13;;;1.73;;
29908;SDS011;36247;51.952;6.146;2023-06-14T13:07:16;3.72;;;1.70;;
29908;SDS011;36247;51.952;6.146;2023-06-14T13:09:42;3.67;;;2.05;;
29908;SDS011;36247;51.952;6.146;2023-06-14T13:12:10;1.75;;;1.63;;
29908;SDS011;36247;51.952;6.146;2023-06-14T13:14:37;2.33;;;1.38;;
29908;SDS011;36247;51.952;6.146;2023-06-14T13:17:11;3.03;;;1.58;;
29908;SDS011;36247;51.952;6.146;2023-06-14T13:19:36;6.25;;;1.67;;
29908;SDS011;36247;51.952;6.146;2023-06-14T13:22:02;1.95;;;1.70;;
29908;SDS011;36247;51.952;6.146;2023-06-14T13:24:29;4.40;;;1.90;;
29908;SDS011;36247;51.952;6.146;2023-06-14T13:26:55;3.25;;;1.90;;
29908;SDS011;36247;51.952;6.146;2023-06-14T13:29:22;1.95;;;1.33;;
29908;SDS011;36247;51.952;6.146;2023-06-14T13:31:48;3.35;;;1.80;;
29908;SDS011;36247;51.952;6.146;2023-06-14T13:34:15;2.55;;;1.67;;
29908;SDS011;36247;51.952;6.146;2023-06-14T13:36:42;2.55;;;1.73;;
29908;SDS011;36247;51.952;6.146;2023-06-14T13:39:07;3.13;;;1.77;;
29908;SDS011;36247;51.952;6.146;2023-06-14T13:41:33;2.53;;;1.70;;
29908;SDS011;36247;51.952;6.146;2023-06-14T13:44:00;3.47;;;1.67;;
29908;SDS011;36247;51.952;6.146;2023-06-14T13:46:26;1.77;;;1.55;;
29908;SDS011;36247;51.952;6.146;2023-06-14T13:48:51;2.30;;;1.70;;
29908;SDS011;36247;51.952;6.146;2023-06-14T13:51:17;2.35;;;1.77;;
29908;SDS011;36247;51.952;6.146;2023-06-14T13:53:47;2.72;;;1.90;;
29908;SDS011;36247;51.952;6.146;2023-06-14T13:56:15;2.42;;;1.67;;
29908;SDS011;36247;51.952;6.146;2023-06-14T13:58:41;2.17;;;1.95;;
29908;SDS011;36247;51.952;6.146;2023-06-14T14:01:07;3.78;;;1.88;;
29908;SDS011;36247;51.952;6.146;2023-06-14T14:03:36;2.60;;;1.73;;
29908;SDS011;36247;51.952;6.146;2023-06-14T14:06:02;5.10;;;2.10;;
29908;SDS011;36247;51.952;6.146;2023-06-14T14:08:29;3.20;;;1.67;;
29908;SDS011;36247;51.952;6.146;2023-06-14T14:10:55;4.20;;;1.75;;
29908;SDS011;36247;51.952;6.146;2023-06-14T14:13:21;1.95;;;1.80;;
29908;SDS011;36247;51.952;6.146;2023-06-14T14:15:47;3.03;;;1.50;;
29908;SDS011;36247;51.952;6.146;2023-06-14T14:18:14;3.25;;;1.73;;
29908;SDS011;36247;51.952;6.146;2023-06-14T14:20:41;2.15;;;1.67;;
29908;SDS011;36247;51.952;6.146;2023-06-14T14:23:07;6.47;;;2.00;;
29908;SDS011;36247;51.952;6.146;2023-06-14T14:25:32;3.35;;;1.60;;
29908;SDS011;36247;51.952;6.146;2023-06-14T14:27:58;4.78;;;1.90;;
29908;SDS011;36247;51.952;6.146;2023-06-14T14:30:23;5.65;;;1.90;;
29908;SDS011;36247;51.952;6.146;2023-06-14T14:32:49;4.68;;;1.70;;
29908;SDS011;36247;51.952;6.146;2023-06-14T14:35:16;4.53;;;1.80;;
29908;SDS011;36247;51.952;6.146;2023-06-14T14:37:43;3.30;;;1.80;;
29908;SDS011;36247;51.952;6.146;2023-06-14T14:40:08;2.00;;;1.75;;
29908;SDS011;36247;51.952;6.146;2023-06-14T14:42:36;2.85;;;1.90;;
29908;SDS011;36247;51.952;6.146;2023-06-14T14:45:03;1.92;;;1.73;;
29908;SDS011;36247;51.952;6.146;2023-06-14T14:47:29;4.25;;;1.90;;
29908;SDS011;36247;51.952;6.146;2023-06-14T14:49:55;1.77;;;1.52;;
29908;SDS011;36247;51.952;6.146;2023-06-14T14:52:20;2.38;;;2.15;;
29908;SDS011;36247;51.952;6.146;2023-06-14T14:54:46;3.50;;;1.70;;
29908;SDS011;36247;51.952;6.146;2023-06-14T14:57:11;4.00;;;1.98;;
29908;SDS011;36247;51.952;6.146;2023-06-14T14:59:37;2.60;;;1.98;;
29908;SDS011;36247;51.952;6.146;2023-06-14T15:02:04;4.05;;;1.90;;